sensor_id;sensor_type;location;lat;lon;timestamp;temperature;humidity
74368;DHT22;64991;41.090;-8.118;2023-06-26T00:00:15;27.00;84.60
74368;DHT22;64991;41.090;-8.118;2023-06-26T00:05:19;27.10;84.90
74368;DHT22;64991;41.090;-8.118;2023-06-26T00:10:22;27.00;84.40
74368;DHT22;64991;41.090;-8.118;2023-06-26T00:15:27;27.00;84.90
74368;DHT22;64991;41.090;-8.118;2023-06-26T00:20:33;27.00;84.80
74368;DHT22;64991;41.090;-8.118;2023-06-26T00:25:37;27.00;85.00
74368;DHT22;64991;41.090;-8.118;2023-06-26T00:30:42;27.00;84.80
74368;DHT22;64991;41.090;-8.118;2023-06-26T00:35:46;27.00;84.90
74368;DHT22;64991;41.090;-8.118;2023-06-26T00:40:49;27.00;84.80
74368;DHT22;64991;41.090;-8.118;2023-06-26T00:45:58;27.00;84.60
74368;DHT22;64991;41.090;-8.118;2023-06-26T00:51:01;27.00;84.90
74368;DHT22;64991;41.090;-8.118;2023-06-26T00:56:05;27.10;84.60
74368;DHT22;64991;41.090;-8.118;2023-06-26T01:01:10;27.00;84.60
74368;DHT22;64991;41.090;-8.118;2023-06-26T01:06:18;27.00;84.70
74368;DHT22;64991;41.090;-8.118;2023-06-26T01:11:23;27.10;84.30
74368;DHT22;64991;41.090;-8.118;2023-06-26T01:16:28;27.00;84.50
74368;DHT22;64991;41.090;-8.118;2023-06-26T01:21:32;27.10;84.20
74368;DHT22;64991;41.090;-8.118;2023-06-26T01:26:38;27.10;84.30
74368;DHT22;64991;41.090;-8.118;2023-06-26T01:31:43;27.10;84.30
74368;DHT22;64991;41.090;-8.118;2023-06-26T01:36:48;27.00;84.30
74368;DHT22;64991;41.090;-8.118;2023-06-26T01:41:53;27.00;84.30
74368;DHT22;64991;41.090;-8.118;2023-06-26T01:46:59;27.00;84.10
74368;DHT22;64991;41.090;-8.118;2023-06-26T01:52:07;27.00;84.30
74368;DHT22;64991;41.090;-8.118;2023-06-26T01:57:13;26.90;84.30
74368;DHT22;64991;41.090;-8.118;2023-06-26T02:02:17;27.00;84.20
74368;DHT22;64991;41.090;-8.118;2023-06-26T02:07:21;27.00;84.00
74368;DHT22;64991;41.090;-8.118;2023-06-26T02:12:26;27.00;84.00
74368;DHT22;64991;41.090;-8.118;2023-06-26T02:17:30;27.00;84.30
74368;DHT22;64991;41.090;-8.118;2023-06-26T02:22:33;27.00;84.00
74368;DHT22;64991;41.090;-8.118;2023-06-26T02:27:38;26.90;83.90
74368;DHT22;64991;41.090;-8.118;2023-06-26T02:32:42;26.90;84.10
74368;DHT22;64991;41.090;-8.118;2023-06-26T02:37:45;26.90;84.30
74368;DHT22;64991;41.090;-8.118;2023-06-26T02:42:50;27.00;84.10
74368;DHT22;64991;41.090;-8.118;2023-06-26T02:47:54;26.90;84.00
74368;DHT22;64991;41.090;-8.118;2023-06-26T02:52:57;26.90;83.70
74368;DHT22;64991;41.090;-8.118;2023-06-26T02:58:02;26.90;83.70
74368;DHT22;64991;41.090;-8.118;2023-06-26T03:03:07;26.90;83.60
74368;DHT22;64991;41.090;-8.118;2023-06-26T03:08:11;26.90;83.60
74368;DHT22;64991;41.090;-8.118;2023-06-26T03:13:16;26.90;83.80
74368;DHT22;64991;41.090;-8.118;2023-06-26T03:18:19;26.90;83.80
74368;DHT22;64991;41.090;-8.118;2023-06-26T03:23:24;26.90;83.50
74368;DHT22;64991;41.090;-8.118;2023-06-26T03:28:28;26.90;83.60
74368;DHT22;64991;41.090;-8.118;2023-06-26T03:33:33;26.90;84.00
74368;DHT22;64991;41.090;-8.118;2023-06-26T03:38:36;26.90;83.80
74368;DHT22;64991;41.090;-8.118;2023-06-26T03:43:41;26.90;83.50
74368;DHT22;64991;41.090;-8.118;2023-06-26T03:48:45;27.00;83.50
74368;DHT22;64991;41.090;-8.118;2023-06-26T03:53:48;26.90;83.40
74368;DHT22;64991;41.090;-8.118;2023-06-26T03:58:53;26.90;83.30
74368;DHT22;64991;41.090;-8.118;2023-06-26T04:03:57;26.80;83.30
74368;DHT22;64991;41.090;-8.118;2023-06-26T04:09:01;26.80;83.70
74368;DHT22;64991;41.090;-8.118;2023-06-26T04:14:07;26.90;83.40
74368;DHT22;64991;41.090;-8.118;2023-06-26T04:19:11;26.90;83.10
74368;DHT22;64991;41.090;-8.118;2023-06-26T04:24:15;26.80;83.40
74368;DHT22;64991;41.090;-8.118;2023-06-26T04:29:20;26.90;83.10
74368;DHT22;64991;41.090;-8.118;2023-06-26T04:34:27;26.90;83.30
74368;DHT22;64991;41.090;-8.118;2023-06-26T04:39:36;26.90;83.40
74368;DHT22;64991;41.090;-8.118;2023-06-26T04:44:41;26.90;83.20
74368;DHT22;64991;41.090;-8.118;2023-06-26T04:49:45;26.80;83.10
74368;DHT22;64991;41.090;-8.118;2023-06-26T04:54:48;26.80;82.90
74368;DHT22;64991;41.090;-8.118;2023-06-26T04:59:53;26.80;83.00
74368;DHT22;64991;41.090;-8.118;2023-06-26T05:04:57;26.80;83.10
74368;DHT22;64991;41.090;-8.118;2023-06-26T05:10:00;26.80;83.10
74368;DHT22;64991;41.090;-8.118;2023-06-26T05:15:06;26.80;82.90
74368;DHT22;64991;41.090;-8.118;2023-06-26T05:20:11;26.80;82.90
74368;DHT22;64991;41.090;-8.118;2023-06-26T05:25:15;26.80;83.00
74368;DHT22;64991;41.090;-8.118;2023-06-26T05:30:20;26.80;82.80
74368;DHT22;64991;41.090;-8.118;2023-06-26T05:35:27;26.80;82.70
74368;DHT22;64991;41.090;-8.118;2023-06-26T05:40:32;26.80;82.60
74368;DHT22;64991;41.090;-8.118;2023-06-26T05:45:38;26.90;82.80
74368;DHT22;64991;41.090;-8.118;2023-06-26T05:50:42;26.80;82.70
74368;DHT22;64991;41.090;-8.118;2023-06-26T05:55:47;26.80;82.80
74368;DHT22;64991;41.090;-8.118;2023-06-26T06:00:52;26.80;82.60
74368;DHT22;64991;41.090;-8.118;2023-06-26T06:05:56;26.70;82.80
74368;DHT22;64991;41.090;-8.118;2023-06-26T06:10:59;26.70;82.50
74368;DHT22;64991;41.090;-8.118;2023-06-26T06:16:05;26.80;82.60
74368;DHT22;64991;41.090;-8.118;2023-06-26T06:21:08;26.80;82.70
74368;DHT22;64991;41.090;-8.118;2023-06-26T06:26:12;26.80;82.60
74368;DHT22;64991;41.090;-8.118;2023-06-26T06:31:17;26.80;82.40
74368;DHT22;64991;41.090;-8.118;2023-06-26T06:36:21;26.80;82.50
74368;DHT22;64991;41.090;-8.118;2023-06-26T06:41:25;26.80;82.30
74368;DHT22;64991;41.090;-8.118;2023-06-26T06:46:30;26.80;82.70
74368;DHT22;64991;41.090;-8.118;2023-06-26T06:51:33;26.80;82.80
74368;DHT22;64991;41.090;-8.118;2023-06-26T06:56:37;26.80;82.60
74368;DHT22;64991;41.090;-8.118;2023-06-26T07:01:42;26.80;82.50
74368;DHT22;64991;41.090;-8.118;2023-06-26T07:06:46;26.80;82.70
74368;DHT22;64991;41.090;-8.118;2023-06-26T07:11:49;26.80;82.70
74368;DHT22;64991;41.090;-8.118;2023-06-26T07:16:54;26.80;82.60
74368;DHT22;64991;41.090;-8.118;2023-06-26T07:21:58;26.80;82.50
74368;DHT22;64991;41.090;-8.118;2023-06-26T07:27:02;26.90;82.60
74368;DHT22;64991;41.090;-8.118;2023-06-26T07:32:07;26.80;82.80
74368;DHT22;64991;41.090;-8.118;2023-06-26T07:37:12;26.80;82.80
74368;DHT22;64991;41.090;-8.118;2023-06-26T07:42:16;26.80;82.90
74368;DHT22;64991;41.090;-8.118;2023-06-26T07:47:22;26.90;82.80
74368;DHT22;64991;41.090;-8.118;2023-06-26T07:52:25;26.80;82.80
74368;DHT22;64991;41.090;-8.118;2023-06-26T07:57:29;26.90;82.80
74368;DHT22;64991;41.090;-8.118;2023-06-26T08:02:35;26.90;82.80
74368;DHT22;64991;41.090;-8.118;2023-06-26T08:07:39;26.80;82.60
74368;DHT22;64991;41.090;-8.118;2023-06-26T08:12:42;26.90;82.80
74368;DHT22;64991;41.090;-8.118;2023-06-26T08:17:48;26.90;82.60
74368;DHT22;64991;41.090;-8.118;2023-06-26T08:22:52;26.90;82.90
74368;DHT22;64991;41.090;-8.118;2023-06-26T08:27:56;26.90;82.90
74368;DHT22;64991;41.090;-8.118;2023-06-26T08:33:01;26.90;82.50
74368;DHT22;64991;41.090;-8.118;2023-06-26T08:38:05;26.90;82.70
74368;DHT22;64991;41.090;-8.118;2023-06-26T08:43:11;26.90;82.70
74368;DHT22;64991;41.090;-8.118;2023-06-26T08:48:16;26.90;82.70
74368;DHT22;64991;41.090;-8.118;2023-06-26T08:53:21;26.90;82.30
74368;DHT22;64991;41.090;-8.118;2023-06-26T08:58:30;26.90;82.80
74368;DHT22;64991;41.090;-8.118;2023-06-26T09:03:35;26.90;82.50
74368;DHT22;64991;41.090;-8.118;2023-06-26T09:08:39;26.90;82.60
74368;DHT22;64991;41.090;-8.118;2023-06-26T09:13:43;26.90;82.70
74368;DHT22;64991;41.090;-8.118;2023-06-26T09:18:48;26.90;82.60
74368;DHT22;64991;41.090;-8.118;2023-06-26T09:23:52;26.80;82.90
74368;DHT22;64991;41.090;-8.118;2023-06-26T09:28:56;26.90;82.70
74368;DHT22;64991;41.090;-8.118;2023-06-26T09:34:01;26.90;82.70
74368;DHT22;64991;41.090;-8.118;2023-06-26T09:39:07;26.90;82.70
74368;DHT22;64991;41.090;-8.118;2023-06-26T09:44:14;26.80;82.70
74368;DHT22;64991;41.090;-8.118;2023-06-26T09:49:19;26.90;82.70
74368;DHT22;64991;41.090;-8.118;2023-06-26T09:54:23;26.80;82.70
74368;DHT22;64991;41.090;-8.118;2023-06-26T09:59:30;26.80;82.80
74368;DHT22;64991;41.090;-8.118;2023-06-26T10:04:36;26.90;83.00
74368;DHT22;64991;41.090;-8.118;2023-06-26T10:09:41;26.90;82.90
74368;DHT22;64991;41.090;-8.118;2023-06-26T10:14:45;26.90;82.60
74368;DHT22;64991;41.090;-8.118;2023-06-26T10:19:50;26.90;82.90
74368;DHT22;64991;41.090;-8.118;2023-06-26T10:24:56;26.80;82.90
74368;DHT22;64991;41.090;-8.118;2023-06-26T10:30:20;26.90;83.10
74368;DHT22;64991;41.090;-8.118;2023-06-26T10:35:27;26.90;83.20
74368;DHT22;64991;41.090;-8.118;2023-06-26T10:40:39;26.90;83.40
74368;DHT22;64991;41.090;-8.118;2023-06-26T10:45:44;26.90;83.40
74368;DHT22;64991;41.090;-8.118;2023-06-26T10:50:55;26.80;83.20
74368;DHT22;64991;41.090;-8.118;2023-06-26T10:56:00;26.90;83.20
74368;DHT22;64991;41.090;-8.118;2023-06-26T11:01:22;26.90;83.30
74368;DHT22;64991;41.090;-8.118;2023-06-26T11:06:28;26.90;83.60
74368;DHT22;64991;41.090;-8.118;2023-06-26T11:17:03;26.90;83.30
74368;DHT22;64991;41.090;-8.118;2023-06-26T11:22:09;26.90;83.50
74368;DHT22;64991;41.090;-8.118;2023-06-26T11:27:13;26.90;83.60
74368;DHT22;64991;41.090;-8.118;2023-06-26T11:32:17;26.80;83.30
74368;DHT22;64991;41.090;-8.118;2023-06-26T11:37:23;26.90;83.90
74368;DHT22;64991;41.090;-8.118;2023-06-26T11:42:28;26.90;83.60
74368;DHT22;64991;41.090;-8.118;2023-06-26T11:47:32;26.90;83.70
74368;DHT22;64991;41.090;-8.118;2023-06-26T11:52:40;26.90;83.80
74368;DHT22;64991;41.090;-8.118;2023-06-26T11:57:47;26.90;84.00
74368;DHT22;64991;41.090;-8.118;2023-06-26T12:02:51;26.90;83.60
74368;DHT22;64991;41.090;-8.118;2023-06-26T12:07:57;26.90;83.80
74368;DHT22;64991;41.090;-8.118;2023-06-26T12:13:01;26.90;83.90
74368;DHT22;64991;41.090;-8.118;2023-06-26T12:18:07;26.90;83.80
74368;DHT22;64991;41.090;-8.118;2023-06-26T12:23:13;26.90;83.90
74368;DHT22;64991;41.090;-8.118;2023-06-26T12:28:17;26.90;83.90
74368;DHT22;64991;41.090;-8.118;2023-06-26T12:33:21;26.90;83.80
74368;DHT22;64991;41.090;-8.118;2023-06-26T12:38:33;26.90;83.80
74368;DHT22;64991;41.090;-8.118;2023-06-26T12:43:37;26.90;84.20
74368;DHT22;64991;41.090;-8.118;2023-06-26T12:48:42;26.90;83.80
74368;DHT22;64991;41.090;-8.118;2023-06-26T12:53:51;27.00;84.00
74368;DHT22;64991;41.090;-8.118;2023-06-26T12:58:54;26.90;83.90
74368;DHT22;64991;41.090;-8.118;2023-06-26T13:03:58;26.90;83.80
74368;DHT22;64991;41.090;-8.118;2023-06-26T13:09:03;26.90;84.10
74368;DHT22;64991;41.090;-8.118;2023-06-26T13:14:07;26.90;83.70
74368;DHT22;64991;41.090;-8.118;2023-06-26T13:19:12;27.00;84.20
74368;DHT22;64991;41.090;-8.118;2023-06-26T13:24:17;26.90;84.10
74368;DHT22;64991;41.090;-8.118;2023-06-26T13:29:21;26.90;83.80
74368;DHT22;64991;41.090;-8.118;2023-06-26T13:34:25;27.00;84.00
74368;DHT22;64991;41.090;-8.118;2023-06-26T13:39:33;26.90;84.10
74368;DHT22;64991;41.090;-8.118;2023-06-26T13:44:36;26.90;84.30
74368;DHT22;64991;41.090;-8.118;2023-06-26T13:49:57;26.90;84.20
74368;DHT22;64991;41.090;-8.118;2023-06-26T13:55:02;27.00;84.10
74368;DHT22;64991;41.090;-8.118;2023-06-26T14:00:08;27.00;84.00
74368;DHT22;64991;41.090;-8.118;2023-06-26T14:05:14;27.00;83.90
74368;DHT22;64991;41.090;-8.118;2023-06-26T14:10:35;26.90;84.40
74368;DHT22;64991;41.090;-8.118;2023-06-26T14:15:39;27.00;84.30
74368;DHT22;64991;41.090;-8.118;2023-06-26T14:20:43;26.90;84.10
74368;DHT22;64991;41.090;-8.118;2023-06-26T14:25:48;27.00;84.30
74368;DHT22;64991;41.090;-8.118;2023-06-26T14:30:52;26.90;84.40
74368;DHT22;64991;41.090;-8.118;2023-06-26T14:35:55;27.00;84.50
74368;DHT22;64991;41.090;-8.118;2023-06-26T14:41:02;27.00;84.10
74368;DHT22;64991;41.090;-8.118;2023-06-26T14:46:05;27.00;84.50
74368;DHT22;64991;41.090;-8.118;2023-06-26T14:51:10;27.00;84.30
74368;DHT22;64991;41.090;-8.118;2023-06-26T14:56:15;27.00;84.60
74368;DHT22;64991;41.090;-8.118;2023-06-26T15:01:19;27.00;84.30
74368;DHT22;64991;41.090;-8.118;2023-06-26T15:06:22;27.00;84.50
74368;DHT22;64991;41.090;-8.118;2023-06-26T15:11:28;27.00;84.80
74368;DHT22;64991;41.090;-8.118;2023-06-26T15:16:31;27.00;84.60
74368;DHT22;64991;41.090;-8.118;2023-06-26T15:21:36;27.00;84.50
74368;DHT22;64991;41.090;-8.118;2023-06-26T15:26:45;27.00;84.60
74368;DHT22;64991;41.090;-8.118;2023-06-26T15:31:48;27.00;84.50
74368;DHT22;64991;41.090;-8.118;2023-06-26T15:36:52;27.10;84.70
74368;DHT22;64991;41.090;-8.118;2023-06-26T15:41:57;27.00;84.80
74368;DHT22;64991;41.090;-8.118;2023-06-26T15:47:01;27.00;84.60
74368;DHT22;64991;41.090;-8.118;2023-06-26T15:52:05;27.00;84.70
74368;DHT22;64991;41.090;-8.118;2023-06-26T15:57:10;27.00;84.80
74368;DHT22;64991;41.090;-8.118;2023-06-26T16:02:14;27.00;85.00
74368;DHT22;64991;41.090;-8.118;2023-06-26T16:07:17;27.00;84.90
74368;DHT22;64991;41.090;-8.118;2023-06-26T16:12:26;27.10;85.10
74368;DHT22;64991;41.090;-8.118;2023-06-26T16:17:30;27.00;85.00
74368;DHT22;64991;41.090;-8.118;2023-06-26T16:22:34;27.00;85.10
74368;DHT22;64991;41.090;-8.118;2023-06-26T16:27:40;27.10;84.90
74368;DHT22;64991;41.090;-8.118;2023-06-26T16:32:45;27.00;85.20
74368;DHT22;64991;41.090;-8.118;2023-06-26T16:37:48;27.00;84.90
74368;DHT22;64991;41.090;-8.118;2023-06-26T16:42:54;27.00;85.20
74368;DHT22;64991;41.090;-8.118;2023-06-26T16:47:57;27.00;85.00
74368;DHT22;64991;41.090;-8.118;2023-06-26T16:53:01;27.00;85.30
74368;DHT22;64991;41.090;-8.118;2023-06-26T16:58:06;27.10;85.10
74368;DHT22;64991;41.090;-8.118;2023-06-26T17:03:09;27.00;85.40
74368;DHT22;64991;41.090;-8.118;2023-06-26T17:08:15;27.10;85.20
74368;DHT22;64991;41.090;-8.118;2023-06-26T17:13:20;27.00;85.30
74368;DHT22;64991;41.090;-8.118;2023-06-26T17:18:23;27.00;85.20
74368;DHT22;64991;41.090;-8.118;2023-06-26T17:23:27;27.00;85.30
74368;DHT22;64991;41.090;-8.118;2023-06-26T17:28:32;27.00;85.10
74368;DHT22;64991;41.090;-8.118;2023-06-26T17:33:36;27.00;85.30
74368;DHT22;64991;41.090;-8.118;2023-06-26T17:38:40;27.10;85.30
74368;DHT22;64991;41.090;-8.118;2023-06-26T17:43:45;27.00;85.50
74368;DHT22;64991;41.090;-8.118;2023-06-26T17:48:49;27.00;85.30
74368;DHT22;64991;41.090;-8.118;2023-06-26T18:04:57;27.10;85.10
74368;DHT22;64991;41.090;-8.118;2023-06-26T18:10:01;27.10;85.40
74368;DHT22;64991;41.090;-8.118;2023-06-26T18:15:05;27.10;85.30
74368;DHT22;64991;41.090;-8.118;2023-06-26T18:20:11;27.10;85.30
74368;DHT22;64991;41.090;-8.118;2023-06-26T18:25:15;27.10;85.30
74368;DHT22;64991;41.090;-8.118;2023-06-26T18:30:18;27.10;85.30
74368;DHT22;64991;41.090;-8.118;2023-06-26T18:35:23;27.10;85.30
74368;DHT22;64991;41.090;-8.118;2023-06-26T18:40:27;27.10;85.30
74368;DHT22;64991;41.090;-8.118;2023-06-26T18:45:30;27.10;85.20
74368;DHT22;64991;41.090;-8.118;2023-06-26T18:50:36;27.10;85.20
74368;DHT22;64991;41.090;-8.118;2023-06-26T18:55:39;27.20;85.20
74368;DHT22;64991;41.090;-8.118;2023-06-26T19:00:43;27.10;85.10
74368;DHT22;64991;41.090;-8.118;2023-06-26T19:05:48;27.20;85.20
74368;DHT22;64991;41.090;-8.118;2023-06-26T19:10:51;27.10;85.20
74368;DHT22;64991;41.090;-8.118;2023-06-26T19:15:55;27.10;85.20
74368;DHT22;64991;41.090;-8.118;2023-06-26T19:21:00;27.10;85.10
74368;DHT22;64991;41.090;-8.118;2023-06-26T19:26:03;27.10;85.30
74368;DHT22;64991;41.090;-8.118;2023-06-26T19:31:08;27.20;84.90
74368;DHT22;64991;41.090;-8.118;2023-06-26T19:36:13;27.20;85.30
74368;DHT22;64991;41.090;-8.118;2023-06-26T19:41:18;27.10;85.10
74368;DHT22;64991;41.090;-8.118;2023-06-26T19:46:21;27.10;85.30
74368;DHT22;64991;41.090;-8.118;2023-06-26T19:51:26;27.10;85.10
74368;DHT22;64991;41.090;-8.118;2023-06-26T19:56:30;27.10;85.40
74368;DHT22;64991;41.090;-8.118;2023-06-26T20:01:33;27.20;85.30
74368;DHT22;64991;41.090;-8.118;2023-06-26T20:06:38;27.20;85.20
74368;DHT22;64991;41.090;-8.118;2023-06-26T20:11:42;27.10;85.30
74368;DHT22;64991;41.090;-8.118;2023-06-26T20:16:46;27.20;85.00
74368;DHT22;64991;41.090;-8.118;2023-06-26T20:21:51;27.20;85.20
74368;DHT22;64991;41.090;-8.118;2023-06-26T20:26:54;27.10;85.30
74368;DHT22;64991;41.090;-8.118;2023-06-26T20:31:58;27.10;85.20
74368;DHT22;64991;41.090;-8.118;2023-06-26T20:37:03;27.10;85.30
74368;DHT22;64991;41.090;-8.118;2023-06-26T20:42:07;27.10;85.30
74368;DHT22;64991;41.090;-8.118;2023-06-26T20:47:13;27.10;85.20
74368;DHT22;64991;41.090;-8.118;2023-06-26T20:52:18;27.10;85.40
74368;DHT22;64991;41.090;-8.118;2023-06-26T20:57:22;27.20;85.30
74368;DHT22;64991;41.090;-8.118;2023-06-26T21:02:25;27.10;85.20
74368;DHT22;64991;41.090;-8.118;2023-06-26T21:07:30;27.20;85.40
74368;DHT22;64991;41.090;-8.118;2023-06-26T21:12:34;27.10;85.10
74368;DHT22;64991;41.090;-8.118;2023-06-26T21:17:37;27.10;84.90
74368;DHT22;64991;41.090;-8.118;2023-06-26T21:22:42;27.20;85.20
74368;DHT22;64991;41.090;-8.118;2023-06-26T21:27:46;27.20;85.30
74368;DHT22;64991;41.090;-8.118;2023-06-26T21:32:49;27.20;85.00
74368;DHT22;64991;41.090;-8.118;2023-06-26T21:37:54;27.10;85.00
74368;DHT22;64991;41.090;-8.118;2023-06-26T21:42:58;27.10;85.20
74368;DHT22;64991;41.090;-8.118;2023-06-26T21:48:01;27.20;85.00
74368;DHT22;64991;41.090;-8.118;2023-06-26T21:53:06;27.20;85.00
74368;DHT22;64991;41.090;-8.118;2023-06-26T21:58:10;27.20;85.30
74368;DHT22;64991;41.090;-8.118;2023-06-26T22:03:13;27.20;85.30
74368;DHT22;64991;41.090;-8.118;2023-06-26T22:08:18;27.20;85.00
74368;DHT22;64991;41.090;-8.118;2023-06-26T22:13:22;27.10;85.00
74368;DHT22;64991;41.090;-8.118;2023-06-26T22:18:25;27.20;85.10
74368;DHT22;64991;41.090;-8.118;2023-06-26T22:23:30;27.20;85.00
74368;DHT22;64991;41.090;-8.118;2023-06-26T22:28:34;27.20;84.90
74368;DHT22;64991;41.090;-8.118;2023-06-26T22:33:37;27.20;85.10
74368;DHT22;64991;41.090;-8.118;2023-06-26T22:38:42;27.20;84.70
74368;DHT22;64991;41.090;-8.118;2023-06-26T22:43:46;27.10;84.90
74368;DHT22;64991;41.090;-8.118;2023-06-26T22:48:49;27.20;84.90
74368;DHT22;64991;41.090;-8.118;2023-06-26T22:53:54;27.20;85.30
74368;DHT22;64991;41.090;-8.118;2023-06-26T22:58:57;27.20;85.00
74368;DHT22;64991;41.090;-8.118;2023-06-26T23:04:01;27.20;84.80
74368;DHT22;64991;41.090;-8.118;2023-06-26T23:09:06;27.20;84.90
74368;DHT22;64991;41.090;-8.118;2023-06-26T23:14:10;27.10;84.90
74368;DHT22;64991;41.090;-8.118;2023-06-26T23:19:13;27.20;84.90
74368;DHT22;64991;41.090;-8.118;2023-06-26T23:24:18;27.20;85.10
74368;DHT22;64991;41.090;-8.118;2023-06-26T23:29:23;27.10;85.20
74368;DHT22;64991;41.090;-8.118;2023-06-26T23:34:26;27.20;84.90
74368;DHT22;64991;41.090;-8.118;2023-06-26T23:39:31;27.20;85.10
74368;DHT22;64991;41.090;-8.118;2023-06-26T23:44:35;27.20;85.00
74368;DHT22;64991;41.090;-8.118;2023-06-26T23:49:38;27.20;85.00
74368;DHT22;64991;41.090;-8.118;2023-06-26T23:54:43;27.10;84.80
74368;DHT22;64991;41.090;-8.118;2023-06-26T23:59:47;27.20;85.00
